createdAt,value
2022-11-26T00:01:20.409Z,101259.81
2022-11-26T00:04:47.219Z,101266.72
2022-11-26T00:08:21.702Z,101267.47
2022-11-26T00:11:48.525Z,101269.46
2022-11-26T00:15:21.901Z,101265.07
2022-11-26T00:18:48.718Z,101262.94
2022-11-26T00:22:24.704Z,101266.16
2022-11-26T00:25:54.943Z,101266.95
2022-11-26T00:29:21.635Z,101270.88
2022-11-26T00:32:48.460Z,101273.70
2022-11-26T00:36:22.423Z,101277.60
2022-11-26T00:39:50.103Z,101280.60
2022-11-26T00:43:18.929Z,101279.67
2022-11-26T00:46:46.136Z,101282.77
2022-11-26T00:50:16.870Z,101278.73
2022-11-26T00:53:44.696Z,101283.61
2022-11-26T00:57:12.714Z,101280.28
2022-11-26T01:00:39.389Z,101277.36
2022-11-26T01:04:06.792Z,101281.52
2022-11-26T01:07:33.604Z,101282.09
2022-11-26T01:11:01.781Z,101289.77
2022-11-26T01:14:28.709Z,101293.93
2022-11-26T01:17:56.267Z,101297.23
2022-11-26T01:21:23.743Z,101297.95
2022-11-26T01:24:51.501Z,101303.48
2022-11-26T01:28:20.008Z,101307.48
2022-11-26T01:31:47.303Z,101310.32
2022-11-26T01:35:15.599Z,101313.63
2022-11-26T01:38:42.295Z,101309.48
2022-11-26T01:42:16.604Z,101309.11
2022-11-26T01:45:43.724Z,101305.77
2022-11-26T01:49:23.904Z,101306.63
2022-11-26T01:52:50.705Z,101309.35
2022-11-26T01:56:28.373Z,101312.01
2022-11-26T01:59:59.296Z,101312.10
2022-11-26T02:03:28.211Z,101305.19
2022-11-26T02:06:57.908Z,101300.52
2022-11-26T02:10:24.717Z,101308.18
2022-11-26T02:13:55.859Z,101305.98
2022-11-26T02:17:29.841Z,101313.48
2022-11-26T02:21:02.070Z,101311.47
2022-11-26T02:24:49.597Z,101316.86
2022-11-26T02:28:32.488Z,101317.02
2022-11-26T02:32:06.999Z,101306.24
2022-11-26T02:35:42.513Z,101307.19
2022-11-26T02:39:17.092Z,101310.98
2022-11-26T02:42:44.139Z,101315.40
2022-11-26T02:46:15.650Z,101315.45
2022-11-26T02:49:45.607Z,101325.05
2022-11-26T02:53:15.089Z,101332.04
2022-11-26T02:56:42.678Z,101333.05
2022-11-26T03:00:12.004Z,101336.33
2022-11-26T03:03:44.206Z,101340.13
2022-11-26T03:07:15.010Z,101338.90
2022-11-26T03:10:41.875Z,101341.42
2022-11-26T03:14:09.151Z,101347.27
2022-11-26T03:17:36.282Z,101350.14
2022-11-26T03:21:03.225Z,101355.53
2022-11-26T03:24:30.610Z,101362.73
2022-11-26T03:27:57.352Z,101364.95
2022-11-26T03:31:24.987Z,101370.88
2022-11-26T03:34:51.786Z,101375.40
2022-11-26T03:38:18.960Z,101380.07
2022-11-26T03:41:45.908Z,101379.01
2022-11-26T03:45:13.886Z,101378.13
2022-11-26T03:48:40.937Z,101381.89
2022-11-26T03:52:07.955Z,101387.49
2022-11-26T03:55:35.001Z,101393.75
2022-11-26T03:59:01.874Z,101393.66
2022-11-26T04:02:28.854Z,101396.75
2022-11-26T04:05:55.765Z,101396.24
2022-11-26T04:09:22.938Z,101396.41
2022-11-26T04:12:50.059Z,101399.05
2022-11-26T04:16:17.120Z,101403.20
2022-11-26T04:19:43.814Z,101406.09
2022-11-26T04:23:11.246Z,101410.88
2022-11-26T04:26:38.070Z,101420.73
2022-11-26T04:30:05.374Z,101422.91
2022-11-26T04:33:32.150Z,101431.30
2022-11-26T04:36:58.899Z,101432.72
2022-11-26T04:40:25.781Z,101433.39
2022-11-26T04:43:52.510Z,101435.88
2022-11-26T04:47:19.134Z,101440.56
2022-11-26T04:50:46.221Z,101445.23
2022-11-26T04:54:13.926Z,101451.14
2022-11-26T04:57:40.843Z,101454.05
2022-11-26T05:01:08.051Z,101459.73
2022-11-26T05:04:35.280Z,101460.81
2022-11-26T05:08:02.023Z,101459.65
2022-11-26T05:11:28.783Z,101464.79
2022-11-26T05:14:55.527Z,101470.58
2022-11-26T05:18:22.360Z,101475.72
2022-11-26T05:21:49.432Z,101479.41
2022-11-26T05:25:16.624Z,101487.05
2022-11-26T05:28:43.950Z,101488.34
2022-11-26T05:32:10.686Z,101492.08
2022-11-26T05:35:38.906Z,101496.17
2022-11-26T05:39:06.536Z,101494.83
2022-11-26T05:42:33.178Z,101496.09
2022-11-26T05:46:03.837Z,101500.83
2022-11-26T05:49:30.785Z,101502.30
2022-11-26T05:52:57.426Z,101501.05
2022-11-26T05:56:24.083Z,101504.48
2022-11-26T05:59:51.445Z,101503.59
2022-11-26T06:03:20.356Z,101507.83
2022-11-26T06:06:47.492Z,101512.65
2022-11-26T06:10:15.446Z,101521.36
2022-11-26T06:13:42.525Z,101526.13
2022-11-26T06:17:09.279Z,101526.45
2022-11-26T06:20:36.151Z,101535.20
2022-11-26T06:24:02.839Z,101534.42
2022-11-26T06:27:29.528Z,101537.36
2022-11-26T06:30:56.180Z,101541.13
2022-11-26T06:34:23.131Z,101549.85
2022-11-26T06:37:50.173Z,101552.16
2022-11-26T06:41:16.897Z,101559.52
2022-11-26T06:44:43.620Z,101565.52
2022-11-26T06:48:10.327Z,101570.20
2022-11-26T06:51:37.037Z,101575.83
2022-11-26T06:55:04.094Z,101583.42
2022-11-26T06:58:30.836Z,101590.38
2022-11-26T07:01:58.378Z,101595.05
2022-11-26T07:05:25.358Z,101597.20
2022-11-26T07:08:53.985Z,101603.81
2022-11-26T07:12:21.114Z,101612.84
2022-11-26T07:15:47.912Z,101629.35
2022-11-26T07:19:16.486Z,101635.64
2022-11-26T07:22:43.226Z,101637.30
2022-11-26T07:26:10.951Z,101643.33
2022-11-26T07:29:37.710Z,101643.77
2022-11-26T07:33:04.349Z,101650.21
2022-11-26T07:36:32.013Z,101654.90
2022-11-26T07:39:58.740Z,101657.10
2022-11-26T07:43:25.513Z,101657.54
2022-11-26T07:46:52.374Z,101661.02
2022-11-26T07:50:20.085Z,101667.72
2022-11-26T07:53:46.910Z,101675.95
2022-11-26T07:57:14.240Z,101679.29
2022-11-26T08:00:41.073Z,101684.63
2022-11-26T08:04:08.733Z,101683.10
2022-11-26T08:07:37.228Z,101688.21
2022-11-26T08:11:04.735Z,101687.17
2022-11-26T08:14:31.356Z,101687.47
2022-11-26T08:17:58.471Z,101696.88
2022-11-26T08:21:26.296Z,101696.58
2022-11-26T08:24:53.227Z,101697.44
2022-11-26T08:28:20.382Z,101694.11
2022-11-26T08:31:48.894Z,101699.77
2022-11-26T08:35:16.526Z,101701.02
2022-11-26T08:38:43.705Z,101699.94
2022-11-26T08:42:10.728Z,101704.98
2022-11-26T08:45:37.422Z,101706.46
2022-11-26T08:49:05.046Z,101712.23
2022-11-26T08:52:32.164Z,101713.40
2022-11-26T08:56:03.376Z,101714.23
2022-11-26T08:59:30.022Z,101719.05
2022-11-26T09:02:56.808Z,101724.25
2022-11-26T09:06:25.974Z,101723.38
2022-11-26T09:09:52.566Z,101727.90
2022-11-26T09:13:21.188Z,101734.66
2022-11-26T09:16:48.831Z,101740.52
2022-11-26T09:20:15.942Z,101745.48
2022-11-26T09:23:43.088Z,101741.55
2022-11-26T09:27:10.942Z,101749.98
2022-11-26T09:30:37.789Z,101750.10
2022-11-26T09:34:04.845Z,101751.66
2022-11-26T09:37:33.658Z,101756.21
2022-11-26T09:41:11.656Z,101752.16
2022-11-26T09:45:05.348Z,101752.89
2022-11-26T09:48:35.037Z,101752.42
2022-11-26T09:52:00.797Z,101757.93
2022-11-26T09:55:31.449Z,101755.77
2022-11-26T09:59:01.898Z,101761.77
2022-11-26T10:02:28.881Z,101764.20
2022-11-26T10:06:01.733Z,101767.17
2022-11-26T10:09:44.173Z,101774.14
2022-11-26T10:13:23.437Z,101780.21
2022-11-26T10:17:00.737Z,101789.34
2022-11-26T10:20:59.279Z,101789.07
2022-11-26T10:24:31.238Z,101792.27
2022-11-26T10:28:00.237Z,101796.70
2022-11-26T10:31:32.529Z,101796.09
2022-11-26T10:35:00.249Z,101795.77
2022-11-26T10:38:27.280Z,101795.39
2022-11-26T10:41:53.937Z,101797.27
2022-11-26T10:45:23.555Z,101797.59
2022-11-26T10:48:50.314Z,101798.34
2022-11-26T10:52:21.382Z,101795.05
2022-11-26T10:55:48.450Z,101797.84
2022-11-26T10:59:25.030Z,101802.47
2022-11-26T11:02:52.148Z,101801.31
2022-11-26T11:06:38.293Z,101803.75
2022-11-26T11:10:18.046Z,101803.30
2022-11-26T11:13:47.126Z,101804.27
2022-11-26T11:17:36.376Z,101801.30
2022-11-26T11:21:05.001Z,101799.70
2022-11-26T11:24:31.975Z,101802.86
2022-11-26T11:28:08.976Z,101807.84
2022-11-26T11:31:47.840Z,101816.27
2022-11-26T11:35:26.812Z,101818.92
2022-11-26T11:38:56.800Z,101820.42
2022-11-26T11:42:28.358Z,101822.42
2022-11-26T11:46:11.079Z,101825.16
2022-11-26T11:49:57.284Z,101828.02
2022-11-26T11:53:40.425Z,101830.05
2022-11-26T11:57:13.826Z,101833.88
2022-11-26T12:00:48.663Z,101832.58
2022-11-26T12:04:32.330Z,101833.43
2022-11-26T12:08:08.565Z,101835.40
2022-11-26T12:11:43.281Z,101834.59
2022-11-26T12:15:18.199Z,101839.92
2022-11-26T12:18:52.530Z,101834.35
2022-11-26T12:22:25.489Z,101837.57
2022-11-26T12:25:58.401Z,101843.77
2022-11-26T12:29:34.764Z,101844.09
2022-11-26T12:33:06.511Z,101841.77
2022-11-26T12:36:41.273Z,101847.18
2022-11-26T12:40:20.631Z,101842.81
2022-11-26T12:43:54.381Z,101840.69
2022-11-26T12:47:27.290Z,101842.52
2022-11-26T12:50:59.877Z,101850.73
2022-11-26T12:54:32.182Z,101852.08
2022-11-26T12:58:03.204Z,101851.00
2022-11-26T13:01:32.100Z,101854.48
2022-11-26T13:05:00.111Z,101859.55
2022-11-26T13:08:39.866Z,101861.14
2022-11-26T13:12:10.852Z,101863.07
2022-11-26T13:15:44.089Z,101869.02
2022-11-26T13:19:20.009Z,101868.36
2022-11-26T13:23:00.988Z,101873.52
2022-11-26T13:26:47.037Z,101871.79
2022-11-26T13:30:18.633Z,101869.07
2022-11-26T13:34:07.843Z,101870.56
2022-11-26T13:37:54.918Z,101872.41
2022-11-26T13:41:36.486Z,101873.05
2022-11-26T13:45:30.403Z,101881.19
2022-11-26T13:49:03.605Z,101887.58
2022-11-26T13:52:36.938Z,101889.05
2022-11-26T13:56:07.565Z,101888.03
2022-11-26T13:59:36.878Z,101888.48
2022-11-26T14:03:04.681Z,101892.81
2022-11-26T14:06:31.916Z,101899.41
2022-11-26T14:10:01.199Z,101899.59
2022-11-26T14:13:28.608Z,101898.84
2022-11-26T14:17:22.332Z,101904.46
2022-11-26T14:21:15.234Z,101909.79
2022-11-26T14:24:59.728Z,101907.21
2022-11-26T14:28:27.966Z,101906.47
2022-11-26T14:31:56.405Z,101916.02
2022-11-26T14:35:33.616Z,101925.37
2022-11-26T14:39:12.941Z,101924.50
2022-11-26T14:42:40.943Z,101926.03
2022-11-26T14:46:13.286Z,101929.35
2022-11-26T14:49:42.829Z,101931.38
2022-11-26T14:53:11.866Z,101938.96
2022-11-26T14:56:46.145Z,101940.73
2022-11-26T15:00:25.849Z,101941.57
2022-11-26T15:04:02.098Z,101944.45
2022-11-26T15:07:30.281Z,101954.20
2022-11-26T15:11:00.125Z,101956.10
2022-11-26T15:14:32.484Z,101960.63
2022-11-26T15:18:03.398Z,101959.89
2022-11-26T15:21:31.021Z,101961.53
2022-11-26T15:24:58.278Z,101961.40
2022-11-26T15:28:26.108Z,101958.14
2022-11-26T15:31:52.737Z,101954.23
2022-11-26T15:35:19.756Z,101958.69
2022-11-26T15:39:04.068Z,101958.47
2022-11-26T15:42:32.468Z,101957.39
2022-11-26T15:46:03.488Z,101963.69
2022-11-26T15:49:34.139Z,101966.27
2022-11-26T15:53:05.641Z,101964.67
2022-11-26T15:56:34.953Z,101962.49
2022-11-26T16:00:05.293Z,101968.80
2022-11-26T16:03:47.852Z,101968.90
2022-11-26T16:07:17.889Z,101971.62
2022-11-26T16:10:55.343Z,101970.67
2022-11-26T16:14:29.768Z,101970.27
2022-11-26T16:17:57.039Z,101973.39
2022-11-26T16:21:27.851Z,101973.48
2022-11-26T16:25:05.372Z,101974.58
2022-11-26T16:28:31.959Z,101976.80
2022-11-26T16:31:59.041Z,101978.13
2022-11-26T16:35:44.811Z,101980.33
2022-11-26T16:39:13.783Z,101986.77
2022-11-26T16:42:40.580Z,101984.24
2022-11-26T16:46:14.779Z,101983.92
2022-11-26T16:49:41.491Z,101980.56
2022-11-26T16:53:09.312Z,101982.23
2022-11-26T16:56:38.361Z,101983.13
2022-11-26T17:00:09.694Z,101984.22
2022-11-26T17:03:36.617Z,101985.13
2022-11-26T17:07:04.022Z,101988.56
2022-11-26T17:10:32.262Z,101988.95
2022-11-26T17:13:59.197Z,101991.60
2022-11-26T17:17:30.483Z,101992.63
2022-11-26T17:20:57.876Z,101994.45
2022-11-26T17:24:30.002Z,102000.17
2022-11-26T17:27:58.960Z,101998.30
2022-11-26T17:31:25.850Z,101998.34
2022-11-26T17:34:52.645Z,102003.54
2022-11-26T17:38:21.362Z,102002.95
2022-11-26T17:41:48.064Z,102005.08
2022-11-26T17:45:16.082Z,102006.15
2022-11-26T17:48:42.900Z,102002.63
2022-11-26T17:52:10.043Z,101998.71
2022-11-26T17:55:37.064Z,102004.61
2022-11-26T17:59:04.429Z,102006.69
2022-11-26T18:02:31.407Z,102007.69
2022-11-26T18:05:58.305Z,102012.36
2022-11-26T18:09:25.767Z,102010.10
2022-11-26T18:12:55.393Z,102009.92
2022-11-26T18:16:20.741Z,102010.25
2022-11-26T18:19:48.245Z,102007.95
2022-11-26T18:23:15.269Z,102014.58
2022-11-26T18:26:42.511Z,102017.98
2022-11-26T18:30:11.245Z,102025.86
2022-11-26T18:33:38.095Z,102028.84
2022-11-26T18:37:04.921Z,102033.45
2022-11-26T18:40:32.156Z,102031.45
2022-11-26T18:43:58.935Z,102028.00
2022-11-26T18:47:25.815Z,102027.81
2022-11-26T18:50:59.847Z,102027.13
2022-11-26T18:54:26.965Z,102031.20
2022-11-26T18:57:53.683Z,102034.48
2022-11-26T19:01:22.636Z,102034.80
2022-11-26T19:04:49.449Z,102032.29
2022-11-26T19:08:16.868Z,102029.45
2022-11-26T19:11:43.786Z,102027.89
2022-11-26T19:15:11.632Z,102026.72
2022-11-26T19:18:38.736Z,102029.90
2022-11-26T19:22:05.576Z,102029.17
2022-11-26T19:25:33.274Z,102034.58
2022-11-26T19:29:05.059Z,102036.29
2022-11-26T19:32:32.345Z,102049.27
2022-11-26T19:35:59.556Z,102051.48
2022-11-26T19:39:26.540Z,102048.67
2022-11-26T19:42:53.265Z,102050.90
2022-11-26T19:46:21.770Z,102054.35
2022-11-26T19:49:48.865Z,102052.09
2022-11-26T19:53:15.683Z,102050.84
2022-11-26T19:56:43.083Z,102048.83
2022-11-26T20:00:13.964Z,102050.58
2022-11-26T20:03:40.801Z,102043.65
2022-11-26T20:07:07.683Z,102049.59
2022-11-26T20:10:34.528Z,102051.27
2022-11-26T20:14:02.393Z,102060.70
2022-11-26T20:17:29.563Z,102062.53
2022-11-26T20:21:03.750Z,102063.45
2022-11-26T20:24:30.530Z,102066.23
2022-11-26T20:27:59.888Z,102067.10
2022-11-26T20:31:27.353Z,102071.46
2022-11-26T20:34:54.204Z,102071.66
2022-11-26T20:38:21.095Z,102072.89
2022-11-26T20:41:48.292Z,102067.78
2022-11-26T20:45:15.496Z,102069.98
2022-11-26T20:48:44.057Z,102071.64
2022-11-26T20:52:10.793Z,102072.31
2022-11-26T20:55:37.445Z,102074.98
2022-11-26T20:59:04.670Z,102073.98
2022-11-26T21:02:31.777Z,102072.50
2022-11-26T21:06:02.245Z,102076.14
2022-11-26T21:09:29.289Z,102075.75
2022-11-26T21:12:56.584Z,102075.90
2022-11-26T21:16:23.606Z,102073.25
2022-11-26T21:19:51.627Z,102072.39
2022-11-26T21:23:18.626Z,102073.71
2022-11-26T21:26:45.499Z,102074.16
2022-11-26T21:30:14.081Z,102073.10
2022-11-26T21:33:40.786Z,102077.55
2022-11-26T21:37:07.653Z,102078.64
2022-11-26T21:40:34.837Z,102078.92
2022-11-26T21:44:03.696Z,102073.96
2022-11-26T21:47:30.707Z,102078.17
2022-11-26T21:50:57.440Z,102079.20
2022-11-26T21:54:24.274Z,102085.97
2022-11-26T21:57:51.085Z,102084.27
2022-11-26T22:01:19.631Z,102079.89
2022-11-26T22:04:46.632Z,102076.75
2022-11-26T22:08:13.694Z,102074.58
2022-11-26T22:11:42.480Z,102070.69
2022-11-26T22:15:10.940Z,102068.14
2022-11-26T22:18:39.318Z,102068.99
2022-11-26T22:22:06.353Z,102070.15
2022-11-26T22:25:34.808Z,102068.11
2022-11-26T22:29:02.389Z,102069.11
2022-11-26T22:32:29.864Z,102066.34
2022-11-26T22:35:56.478Z,102061.84
2022-11-26T22:39:23.404Z,102060.13
2022-11-26T22:42:50.190Z,102053.91
2022-11-26T22:46:18.865Z,102048.58
2022-11-26T22:49:45.588Z,102047.71
2022-11-26T22:53:12.390Z,102043.55
2022-11-26T22:56:40.048Z,102045.35
2022-11-26T23:00:10.834Z,102049.58
2022-11-26T23:03:38.632Z,102048.25
2022-11-26T23:07:05.609Z,102042.27
2022-11-26T23:10:32.551Z,102043.07
2022-11-26T23:13:59.389Z,102042.47
2022-11-26T23:17:26.276Z,102046.79
2022-11-26T23:21:02.305Z,102048.81
2022-11-26T23:24:30.104Z,102054.67
2022-11-26T23:27:57.173Z,102057.25
2022-11-26T23:31:25.933Z,102053.92
2022-11-26T23:34:52.867Z,102051.80
2022-11-26T23:38:19.672Z,102050.55
2022-11-26T23:41:46.417Z,102052.48
2022-11-26T23:45:13.678Z,102051.05
2022-11-26T23:48:40.464Z,102052.65
2022-11-26T23:52:07.394Z,102051.86
2022-11-26T23:55:34.386Z,102054.75
2022-11-26T23:59:03.066Z,102058.36
